CYXR

Earlton (Timiskaming Regional) Airport

Earlton, Ontario, Canada
METAR CYXR 140000Z AUTO 13010G15KT 9SM BKN011 OVC034 M07/M07 A3021 RMK ICG SLP250
Observed Flight Rules
Dec-14 @ 00:00 UTC (44 minutes ago) Marginal Visual Flight Rules
Wind Visibility Clouds
130° at 10 knots
 Gusting to 15 knots
9 miles
  • Broken at 1,100' AGL
  • Overcast at 3,400' AGL
Temperatures Readings
Current -7°C / 19°F
Dewpoint -7°C / 19°F
Humidity 100%
Altimeter 30.21" Hg
Pressure 1025 hPa
Elevation 243
METAR CYXR 140000Z AUTO 13010G15KT 9SM BKN011 OVC034 M07/M07 A3021 RMK ICG SLP250
Observed Flight Rules
Dec-14 @ 00:00 UTC
(44 minutes ago)
MVFR
Wind Visibility
130° at 10 knots
 Gusting to 15 knots
9 miles
Clouds
  • Broken at 1,100' AGL
  • Overcast at 3,400' AGL
Temperature Dewpoint
-7°C / 19°F -7°C / 19°F
Humidity Altimeter Pressure
100% 30.21" Hg 1025 hPa